Latest Weather Observations for Blackall

IDQ60801

Issued at 3:32 pm EST Friday 26 May 2017 (issued every 30 minutes, with the page automatically refreshed every 10 minutes)

About weather observations | Map of weather stations | Latest weather observations for QLD | Other Formats
Station Details ID: 036034 Name: BLACKALL AIRPORT Lat: -24.43 Lon: 145.43 Height: 281.3 m
Data from the previous 72 hours. | See also: Recent months at Blackall
Date/Time
EST
Temp
°C
App
Temp
°C
Dew
Point
°C
Rel
Hum
%
Delta-T
°C
Wind Press
QNH
hPa
Press
MSL
hPa
Rain since
9am
mm
Dir  Spd
km/h
Gust
km/h
Spd
kts
Gust
kts
26/03:30pm 27.4 25.3 5.6 25 11.4 WSW 6 9 3 5 1015.3 1014.5 0.0
26/03:00pm 27.2 24.9 4.9 24 11.5 NNW 6 11 3 6 1015.5 1014.7 0.0
26/02:30pm 27.6 25.3 4.6 23 11.9 NW 6 11 3 6 1015.6 1014.8 0.0
26/02:00pm 28.4 25.8 5.9 24 11.9 ESE 9 17 5 9 1015.7 1014.9 0.0
26/01:30pm 28.0 24.9 5.6 24 11.8 E 11 17 6 9 1016.2 1015.5 0.0
26/01:00pm 28.5 26.7 5.4 23 12.1 W 4 7 2 4 1016.7 1016.0 0.0
26/12:30pm 28.2 25.9 5.7 24 11.9 ESE 7 13 4 7 1017.2 1016.5 0.0
26/12:00pm 26.9 24.0 4.6 24 11.4 SE 9 15 5 8 1017.9 1017.1 0.0
26/11:30am 26.7 24.7 7.2 29 10.5 N 7 17 4 9 1018.4 1017.6 0.0
26/11:00am 25.4 22.7 7.5 32 9.6 NNE 11 17 6 9 1019.0 1018.2 0.0
26/10:30am 24.6 22.0 7.7 34 9.0 NNE 11 19 6 10 1019.5 1018.8 0.0
26/10:00am 22.9 20.2 7.4 37 8.2 NE 11 15 6 8 1019.7 1019.0 0.0
26/09:30am 21.0 17.1 6.9 40 7.3 ENE 17 20 9 11 1019.6 1018.9 0.0
26/09:00am 19.2 16.4 7.0 45 6.2 E 11 15 6 8 1019.7 1019.0 0.0
26/08:30am 16.4 13.3 5.4 48 5.3 SE 11 13 6 7 1019.6 1018.9 0.0
26/08:00am 14.1 10.8 4.4 52 4.5 ESE 11 17 6 9 1019.5 1018.8 0.0
26/07:30am 11.9 8.9 3.9 58 3.6 SE 9 13 5 7 1019.4 1018.7 0.0
26/07:00am 10.0 7.3 3.7 65 2.8 SE 7 9 4 5 1019.3 1018.6 0.0
26/06:30am 10.3 7.2 3.6 63 3.0 S 9 9 5 5 1019.0 1018.2 0.0
26/06:00am 10.3 7.5 3.3 62 3.1 SSE 7 11 4 6 1018.7 1017.9 0.0
26/05:30am 11.0 8.2 3.3 59 3.4 S 7 9 4 5 1018.5 1017.7 0.0
26/05:00am 11.4 8.3 3.7 59 3.5 SE 9 13 5 7 1018.2 1017.4 0.0
26/04:30am 11.5 8.1 3.8 59 3.5 SSE 11 13 6 7 1018.0 1017.2 0.0
26/04:00am 10.9 8.2 3.5 60 3.3 SSE 7 13 4 7 1018.1 1017.3 0.0
26/03:30am 11.7 8.6 3.7 58 3.6 SSE 9 11 5 6 1018.1 1017.3 0.0
26/03:00am 11.5 8.5 4.0 60 3.4 SSE 9 11 5 6 1018.2 1017.4 0.0
26/02:30am 11.2 8.5 3.7 60 3.4 SSE 7 7 4 4 1018.3 1017.5 0.0
26/02:00am 10.9 7.9 4.1 63 3.1 SSE 9 11 5 6 1018.4 1017.6 0.0
26/01:30am 11.9 10.6 4.2 59 3.5 CALM 0 0 0 0 1018.8 1018.0 0.0
26/01:00am 12.4 9.3 3.6 55 4.0 SSE 9 11 5 6 1018.9 1018.1 0.0
26/12:30am 14.0 12.2 3.5 49 4.8 SW 2 7 1 4 1019.2 1018.4 0.0
26/12:00am 14.9 12.4 3.7 47 5.2 SSE 6 7 3 4 1019.1 1018.3 0.0
 
Date/Time
EST
Temp
°C
App
Temp
°C
Dew
Point
°C
Rel
Hum
%
Delta-T
°C
Wind Press
QNH
hPa
Press
MSL
hPa
Rain since
9am
mm
Dir  Spd
km/h
Gust
km/h
Spd
kts
Gust
kts
25/11:30pm 15.5 12.1 3.9 46 5.4 SE 11 13 6 7 1019.1 1018.3 0.0
25/11:00pm 16.1 12.7 4.2 45 5.6 SSE 11 13 6 7 1019.3 1018.6 0.0
25/10:30pm 16.8 13.4 4.2 43 6.0 SSE 11 13 6 7 1019.4 1018.7 0.0
25/10:00pm 17.4 14.3 3.7 40 6.5 SSE 9 11 5 6 1019.4 1018.7 0.0
25/09:30pm 18.8 15.7 3.8 37 7.2 SSE 9 11 5 6 1019.3 1018.6 0.0
25/09:00pm 19.9 16.5 4.0 35 7.7 S 11 17 6 9 1019.2 1018.4 0.0
25/08:30pm 19.7 16.7 4.2 36 7.5 SSE 9 13 5 7 1019.0 1018.2 0.0
25/08:00pm 20.4 17.0 4.0 34 8.0 SSE 11 13 6 7 1018.8 1018.0 0.0
25/07:30pm 21.4 18.0 4.0 32 8.5 SSE 11 17 6 9 1018.7 1017.9 0.0
25/07:00pm 21.6 18.2 4.2 32 8.6 S 11 13 6 7 1018.6 1017.8 0.0
25/06:30pm 22.4 19.3 3.5 29 9.2 SSW 9 11 5 6 1018.2 1017.4 0.0
25/06:00pm 23.5 20.4 3.4 27 9.9 S 9 11 5 6 1018.0 1017.2 0.0
25/05:30pm 25.4 22.2 2.8 23 11.1 SSW 9 13 5 7 1017.7 1017.0 0.0
25/05:00pm 27.5 24.3 3.2 21 12.2 SW 9 15 5 8 1017.4 1016.7 0.0
25/04:30pm 27.9 23.5 2.9 20 12.5 SSW 15 20 8 11 1017.3 1016.6 0.0
25/04:00pm 28.7 24.7 2.8 19 13.0 WSW 13 20 7 11 1017.2 1016.5 0.0
25/03:30pm 28.6 24.6 2.7 19 13.0 SW 13 24 7 13 1017.1 1016.4 0.0
25/03:00pm 29.0 25.8 3.1 19 13.1 W 9 19 5 10 1017.2 1016.5 0.0
25/02:30pm 29.2 25.9 4.6 21 12.8 SSE 11 17 6 9 1017.4 1016.7 0.0
25/02:00pm 28.5 25.6 4.7 22 12.3 S 9 20 5 11 1017.7 1017.0 0.0
25/01:30pm 28.3 25.8 4.6 22 12.3 WSW 7 15 4 8 1018.3 1017.5 0.0
25/01:00pm 27.5 24.6 4.5 23 11.8 SW 9 17 5 9 1018.8 1018.0 0.0
25/12:30pm 27.1 24.6 4.8 24 11.5 SSW 7 13 4 7 1019.4 1018.7 0.0
25/12:00pm 27.0 24.4 5.9 26 11.1 SE 9 17 5 9 1019.9 1019.2 0.0
25/11:30am 26.1 22.9 6.7 29 10.3 E 13 20 7 11 1020.2 1019.5 0.0
25/11:00am 24.7 21.4 6.4 31 9.6 ESE 13 20 7 11 1020.5 1019.8 0.0
25/10:30am 24.0 21.3 7.2 34 8.9 ESE 11 17 6 9 1020.8 1020.1 0.0
25/10:00am 22.2 19.9 7.6 39 7.7 ESE 9 13 5 7 1021.1 1020.4 0.0
25/09:30am 20.5 17.9 7.8 44 6.7 ESE 11 15 6 8 1021.0 1020.3 0.0
25/09:00am 18.8 16.2 7.9 49 5.6 ESE 11 19 6 10 1020.9 1020.2 0.0
25/08:30am 16.7 14.1 7.9 56 4.5 SE 11 17 6 9 1020.9 1020.2 0.0
25/08:00am 14.3 13.1 8.0 66 3.2 SE 4 7 2 4 1020.7 1020.0 0.0
25/07:30am 12.6 11.1 8.5 76 2.1 SE 6 7 3 4 1020.4 1019.7 0.0
25/07:00am 11.2 9.4 7.1 76 2.0 ESE 6 7 3 4 1020.3 1019.6 0.0
25/06:30am 11.9 9.9 7.2 73 2.3 SE 7 9 4 5 1019.9 1019.2 0.0
25/06:00am 12.4 10.2 7.7 73 2.3 SSE 9 11 5 6 1019.6 1018.9 0.0
25/05:30am 12.7 10.5 7.8 72 2.4 SSE 9 11 5 6 1019.3 1018.6 0.0
25/05:00am 12.0 9.8 7.7 75 2.1 S 9 9 5 5 1019.1 1018.3 0.0
25/04:30am 11.9 9.9 7.2 73 2.3 SSE 7 9 4 5 1019.1 1018.3 0.0
25/04:00am 12.7 10.5 7.8 72 2.4 SSE 9 11 5 6 1019.2 1018.4 0.0
25/03:30am 12.5 10.6 7.6 72 2.4 SSE 7 9 4 5 1019.2 1018.4 0.0
25/03:00am 13.3 11.6 7.5 68 2.9 S 6 9 3 5 1019.1 1018.3 0.0
25/02:30am 14.5 12.6 7.5 63 3.5 SE 7 9 4 5 1019.2 1018.4 0.0
25/02:00am 15.2 13.0 7.7 61 3.8 SSE 9 9 5 5 1019.3 1018.6 0.0
25/01:30am 15.9 13.7 7.9 59 4.1 SE 9 11 5 6 1019.4 1018.7 0.0
25/01:00am 16.7 14.5 7.9 56 4.5 SE 9 9 5 5 1019.5 1018.8 0.0
25/12:30am 18.2 15.7 8.2 52 5.2 SSE 11 15 6 8 1019.7 1019.0 0.0
25/12:00am 18.7 16.3 8.7 52 5.3 S 11 13 6 7 1019.8 1019.1 0.0
 
Date/Time
EST
Temp
°C
App
Temp
°C
Dew
Point
°C
Rel
Hum
%
Delta-T
°C
Wind Press
QNH
hPa
Press
MSL
hPa
Rain since
9am
mm
Dir  Spd
km/h
Gust
km/h
Spd
kts
Gust
kts
24/11:30pm 18.8 17.0 7.9 49 5.7 S 7 9 4 5 1019.9 1019.2 0.0
24/11:00pm 19.6 17.4 7.7 46 6.2 S 9 13 5 7 1020.0 1019.3 0.0
24/10:30pm 20.2 17.5 7.2 43 6.7 S 11 13 6 7 1020.1 1019.4 0.0
24/10:00pm 21.1 18.3 7.0 40 7.3 SSW 11 15 6 8 1020.0 1019.3 0.0
24/09:30pm 20.2 17.7 8.2 46 6.3 SSW 11 13 6 7 1019.9 1019.2 0.0
24/09:00pm 19.6 17.2 8.6 49 5.8 S 11 11 6 6 1019.8 1019.1 0.0
24/08:30pm 21.7 19.8 8.9 44 6.9 S 9 11 5 6 1019.6 1018.9 0.0
24/08:00pm 22.0 19.8 9.5 45 6.8 SSE 11 13 6 7 1019.4 1018.7 0.0
24/07:30pm 21.4 20.1 9.9 48 6.3 SSE 7 9 4 5 1019.2 1018.4 0.0
24/07:00pm 22.6 21.4 9.4 43 7.2 SW 6 6 3 3 1018.9 1018.1 0.0
24/06:30pm 23.8 22.3 8.6 38 8.2 SSW 6 9 3 5 1018.6 1017.8 0.0
24/06:00pm 25.1 23.1 8.6 35 9.0 SSW 9 11 5 6 1018.3 1017.5 0.0
24/05:30pm 26.4 24.3 8.4 32 9.9 SW 9 15 5 8 1018.1 1017.3 0.0
24/05:00pm 27.9 24.9 7.7 28 11.0 SSW 13 19 7 10 1017.9 1017.1 0.0
24/04:30pm 29.5 27.4 6.8 24 12.3 S 7 17 4 9 1017.5 1016.8 0.0
24/04:00pm 29.6 27.9 7.5 25 12.1 W 6 11 3 6 1017.4 1016.7 0.0
24/03:30pm 28.7 26.5 7.9 27 11.4 SSW 9 20 5 11 1017.6 1016.9 0.0
24/03:00pm 28.7 26.4 8.9 29 11.0 ESE 11 15 6 8 1017.7 1017.0 0.0
24/02:30pm 29.6 28.7 9.2 28 11.5 SSW 4 9 2 5 1017.9 1017.1 0.0
24/02:00pm 28.8 27.0 7.9 27 11.5 S 7 17 4 9 1018.2 1017.4 0.0
24/01:30pm 29.3 27.2 8.4 27 11.6 SSW 9 20 5 11 1018.4 1017.6 0.0
24/01:00pm 28.7 27.3 8.9 29 11.0 WSW 6 17 3 9 1018.9 1018.1 0.0
24/12:30pm 28.6 28.0 10.3 32 10.5 NE 4 13 2 7 1019.6 1018.9 0.0
24/12:00pm 27.9 26.6 10.1 33 10.1 WNW 7 13 4 7 1020.0 1019.3 0.0
24/11:30am 27.4 26.3 10.6 35 9.6 WNW 7 15 4 8 1020.4 1019.7 0.0
24/11:00am 27.0 25.8 11.5 38 8.9 N 9 17 5 9 1020.9 1020.2 0.0
24/10:30am 26.3 25.0 12.4 42 8.1 N 11 19 6 10 1021.3 1020.6 0.0
24/10:00am 25.1 23.2 13.0 47 7.1 N 15 19 8 10 1021.7 1020.9 0.0
24/09:30am 23.4 22.1 13.6 54 5.8 NNE 13 19 7 10 1021.8 1021.0 0.0
24/09:00am 21.5 20.6 12.6 57 5.1 NNE 9 13 5 7 1021.7 1020.9 0.0
24/08:30am 19.0 18.0 11.1 60 4.4 ENE 7 9 4 5 1021.5 1020.8 0.0
24/08:00am 16.4 15.8 10.3 67 3.3 ESE 4 6 2 3 1021.2 1020.5 0.0
24/07:30am 13.3 12.1 9.5 78 2.0 SE 6 7 3 4 1021.0 1020.3 0.0
24/07:00am 12.0 10.9 8.5 79 1.8 SSE 4 7 2 4 1020.8 1020.1 0.0
24/06:30am 12.2 11.8 8.3 77 2.0 CALM 0 0 0 0 1020.5 1019.8 0.0
24/06:00am 12.7 12.3 8.2 74 2.3 CALM 0 0 0 0 1020.1 1019.4 0.0
24/05:30am 13.9 12.4 8.5 70 2.7 E 6 7 3 4 1019.8 1019.1 0.0
24/05:00am 14.6 13.1 8.5 67 3.1 E 6 7 3 4 1019.7 1019.0 0.0
24/04:30am 14.7 13.2 8.6 67 3.1 E 6 7 3 4 1019.6 1018.9 0.0
24/04:00am 15.2 13.8 8.7 65 3.3 E 6 7 3 4 1019.5 1018.8 0.0
24/03:30am 15.8 14.2 8.8 63 3.6 E 7 9 4 5 1019.5 1018.8 0.0
24/03:00am 15.9 14.4 9.3 65 3.5 E 7 9 4 5 1019.4 1018.7 0.0
24/02:30am 14.4 12.9 9.0 70 2.8 E 7 9 4 5 1019.4 1018.7 0.0
24/02:00am 14.7 13.1 8.9 68 3.0 ENE 7 9 4 5 1019.5 1018.8 0.0
24/01:30am 15.5 14.1 8.7 64 3.5 E 6 7 3 4 1019.6 1018.9 0.0
24/01:00am 15.8 14.2 8.8 63 3.6 ESE 7 9 4 5 1019.6 1018.9 0.0
24/12:30am 16.0 14.5 9.2 64 3.6 SE 7 9 4 5 1019.8 1019.1 0.0
24/12:00am 15.8 14.3 9.2 65 3.4 SE 7 9 4 5 1019.9 1019.2 0.0
 
Date/Time
EST
Temp
°C
App
Temp
°C
Dew
Point
°C
Rel
Hum
%
Delta-T
°C
Wind Press
QNH
hPa
Press
MSL
hPa
Rain since
9am
mm
Dir  Spd
km/h
Gust
km/h
Spd
kts
Gust
kts
23/11:30pm 16.7 15.5 9.6 63 3.8 SSE 6 7 3 4 1020.0 1019.3 0.0
23/11:00pm 16.2 14.4 9.6 65 3.5 SE 9 9 5 5 1020.1 1019.4 0.0
23/10:30pm 16.1 14.7 9.5 65 3.5 SSE 7 9 4 5 1020.0 1019.3 0.0
23/10:00pm 16.2 15.4 9.6 65 3.5 S 4 7 2 4 1019.9 1019.2 0.0
23/09:30pm 16.9 16.8 9.3 61 4.0 CALM 0 0 0 0 1019.9 1019.2 0.0
23/09:00pm 17.8 17.1 9.9 60 4.2 E 4 9 2 5 1019.7 1019.0 0.0
23/08:30pm 18.3 18.2 9.6 57 4.7 CALM 0 0 0 0 1019.4 1018.7 0.0
23/08:00pm 19.5 19.1 9.7 53 5.3 ENE 2 7 1 4 1019.2 1018.4 0.0
23/07:30pm 20.2 20.0 9.2 49 5.9 CALM 0 0 0 0 1019.0 1018.2 0.0
23/07:00pm 20.9 20.0 9.2 47 6.3 ESE 4 6 2 3 1018.7 1017.9 0.0
23/06:30pm 22.4 22.1 8.5 41 7.5 CALM 0 0 0 0 1018.4 1017.6 0.0
23/06:00pm 24.3 23.8 7.9 35 8.8 CALM 0 0 0 0 1018.3 1017.5 0.0
23/05:30pm 27.0 26.4 7.5 29 10.5 CALM 0 0 0 0 1018.0 1017.2 0.0
23/05:00pm 28.5 26.1 7.1 26 11.6 SSE 9 15 5 8 1017.7 1017.0 0.0
23/04:30pm 29.1 26.7 7.1 25 11.9 E 9 17 5 9 1017.6 1016.9 0.0
23/04:00pm 29.5 27.6 7.4 25 12.1 SSE 7 17 4 9 1017.4 1016.7 0.0

Other Formats:

Comma delimited format used in spreadsheet applications
http://www.bom.gov.au/fwo/IDQ60801/IDQ60801.95351.axf

JavaScript Object Notation format (JSON) in row-major order
http://www.bom.gov.au/fwo/IDQ60801/IDQ60801.95351.json